WSSLWMSA

Guest
Details From WSSL - Seletar
To WMSA - Kuala Lumpur S Abdul Aziz Shah
Flight Number -
Tags generated
Created
Modified
Stats Distance 173 nm / 321 km
Max Altitude 22,000 ft / 6,706 m
Waypoints 3
Social Downloads 0
Likes 0
Share VATSIM

Download

Looking for another format? Having issues loading an existing format? Contact us
Advertisement - Login to hide

Notes

Basic altitude profile: - Ascent Rate: 2500ft/min - Ascent Speed: 250kts - Cruise Altitude: 35000ft - Cruise Speed: 420kts - Descent Rate: 1500ft/min - Descent Speed: 250kts Options: - Use NATs: yes - Use PACOTS: yes - Use low airways: yes - Use high airways: no

Route

WSSL KASRI WMSA

ID Type Via Altitude Latitude Longitude Leg Dist Tot Dist Heading (true) Name
O WSSL APT - 0 ft / 0 m 1.41643˚ 103.86730˚ - 0 nm - Seletar
KASRI FIX - 22,000 ft / 6,706 m 2.05472˚ 102.88694˚ 70 nm 70 nm 303° / 303° -
O WMSA APT - 0 ft / 0 m 3.13058˚ 101.54933˚ 103 nm 173 nm 309° / 309° Kuala Lumpur S Abdul Aziz Shah

Altitude Profile

Advertisement - Login to hide

Weather


0- 5 10 15 20 25 30 35+ Temperature / ° C

Clouds and Precipitation
Forecast for 2018-05-24 18:00 UTC. Updated 6 hours ago

Ground ~20,000 ft ~40,000 ft Winds

WSSL

Details ICAO WSSL (XSP)
Name Seletar
Region Singapore
Timezone Asia/Singapore (UTC+8.0)
Stats Elevation 36 ft / 11 m (AMSL)
Location 1.416427° 103.867299°
Runways 1
Magnetic Variation 0.216° E

METAR

WSSL 242300Z 34001KT 9999 FEW018 BKN300 27/24 Q1008

Decode

TAF

Not found

Departure Runways

ID Width Length Bearing (true) Bearing (mag) Surface Threshold Offset Overrun Length
03 151 ft / 46 m 5,243 ft / 1,598 m 33.15° 32.93° Asphalt 0 ft / 0 m 197 ft / 60 m
21 151 ft / 46 m 5,243 ft / 1,598 m 213.15° 212.93° Asphalt 0 ft / 0 m 197 ft / 60 m

WMSA

Details ICAO WMSA (SZB)
Name Kuala Lumpur S Abdul Aziz Shah
Region Malaysia (Peninsular Malaysia)
Timezone Asia/Kuala_Lumpur (UTC+8.0)
Stats Elevation 90 ft / 27 m (AMSL)
Location 3.130583° 101.549334°
Runways 1
Magnetic Variation 0.023° W

METAR

WMSA 242300Z VRB01KT 4000 HZ FEW003 SCT140 BKN280 25/24 Q1008

Decode

TAF

Not found

Destination Runways

ID Width Length Bearing (true) Bearing (mag) Surface Threshold Offset Overrun Length
15 148 ft / 45 m 12,450 ft / 3,795 m 149.84° 149.86° Asphalt 0 ft / 0 m 200 ft / 61 m
33 148 ft / 45 m 12,450 ft / 3,795 m 329.84° 329.86° Asphalt 0 ft / 0 m 200 ft / 61 m

Approach Navaids

Runway Type Ident Frequency Range Bearing (true) Bearing (mag) Slope Elevation
15 Localiser ISB 110.30 MHz 18 nm / 33 km 149.21° 149.23° - 80 ft / 24 m (AMSL)
15 Glidescope ISB 110.30 MHz 10 nm / 19 km 149.84° 149.86° 3.00° 90 ft / 27 m (AMSL)
15 DME ISB 110.30 MHz 18 nm / 33 km - - - 90 ft / 27 m (AMSL)
33 Localiser IKL 109.90 MHz 18 nm / 33 km 328.62° 328.65° - 69 ft / 21 m (AMSL)
33 Glidescope IKL 109.90 MHz 10 nm / 19 km 329.84° 329.86° 3.00° 69 ft / 21 m (AMSL)
33 DME IKL 109.90 MHz 18 nm / 33 km - - - 69 ft / 21 m (AMSL)